Terminal Aerodrome Forecast
Issued by NWS

Home | Current Version | Previous Version | Text Only | Print | Product List | Glossary On
Versions: 1 2 3 4 5 6 7 8 9 10 11 12 13 14 15 16 17 18 19 20 21 22 23 24
000
FTUS44 KTSA 211100
TAFFYV
TAF
KFYV 211136Z 2112/2212 17004KT P6SM VCSH BKN060 OVC090
      TEMPO 2113/2115 6SM -SHRA OVC040
     FM211600 35009KT P6SM SCT040 SCT100
     FM220000 36003KT P6SM SKC=

USA.gov is the U.S. government's official web portal to all federal, state and local government web resources and services.